sensor_id;sensor_type;location;lat;lon;timestamp;pressure;altitude;pressure_sealevel;temperature;humidity
1926;BME280;964;42.606;23.588;2023-07-24T00:00:41;94725.13;;;40.74;25.29
1926;BME280;964;42.606;23.588;2023-07-24T00:03:09;94735.41;;;40.45;25.46
1926;BME280;964;42.606;23.588;2023-07-24T00:05:35;94750.22;;;40.60;25.33
1926;BME280;964;42.606;23.588;2023-07-24T00:08:02;94746.81;;;40.54;24.94
1926;BME280;964;42.606;23.588;2023-07-24T00:10:29;94738.53;;;40.07;25.43
1926;BME280;964;42.606;23.588;2023-07-24T00:12:55;94755.59;;;39.06;26.12
1926;BME280;964;42.606;23.588;2023-07-24T00:15:22;94758.00;;;39.29;26.33
1926;BME280;964;42.606;23.588;2023-07-24T00:17:48;94751.69;;;39.94;25.98
1926;BME280;964;42.606;23.588;2023-07-24T00:20:16;94744.09;;;40.07;26.23
1926;BME280;964;42.606;23.588;2023-07-24T00:22:43;94749.44;;;39.92;25.84
1926;BME280;964;42.606;23.588;2023-07-24T00:25:09;94750.94;;;39.14;26.83
1926;BME280;964;42.606;23.588;2023-07-24T00:27:36;94747.44;;;39.40;26.42
1926;BME280;964;42.606;23.588;2023-07-24T00:30:03;94751.81;;;39.75;25.99
1926;BME280;964;42.606;23.588;2023-07-24T00:32:29;94745.75;;;39.63;26.27
1926;BME280;964;42.606;23.588;2023-07-24T00:34:57;94740.72;;;39.49;26.30
1926;BME280;964;42.606;23.588;2023-07-24T00:37:25;94747.09;;;39.04;27.16
1926;BME280;964;42.606;23.588;2023-07-24T00:39:51;94737.69;;;39.20;26.68
1926;BME280;964;42.606;23.588;2023-07-24T00:42:18;94742.59;;;39.01;26.97
1926;BME280;964;42.606;23.588;2023-07-24T00:44:44;94730.44;;;39.04;26.47
1926;BME280;964;42.606;23.588;2023-07-24T00:47:11;94745.19;;;38.81;26.86
1926;BME280;964;42.606;23.588;2023-07-24T00:49:38;94738.81;;;39.31;26.12
1926;BME280;964;42.606;23.588;2023-07-24T00:52:05;94735.84;;;39.42;26.27
1926;BME280;964;42.606;23.588;2023-07-24T00:54:34;94744.88;;;39.29;26.36
1926;BME280;964;42.606;23.588;2023-07-24T00:57:01;94749.16;;;39.56;25.92
1926;BME280;964;42.606;23.588;2023-07-24T00:59:29;94738.81;;;39.31;26.26
1926;BME280;964;42.606;23.588;2023-07-24T01:01:56;94737.31;;;39.30;26.33
1926;BME280;964;42.606;23.588;2023-07-24T01:04:23;94733.00;;;39.02;26.88
1926;BME280;964;42.606;23.588;2023-07-24T01:06:49;94732.66;;;39.06;26.48
1926;BME280;964;42.606;23.588;2023-07-24T01:09:16;94742.38;;;38.86;27.19
1926;BME280;964;42.606;23.588;2023-07-24T01:11:47;94738.13;;;38.98;27.22
1926;BME280;964;42.606;23.588;2023-07-24T01:14:21;94739.03;;;38.88;27.58
1926;BME280;964;42.606;23.588;2023-07-24T01:16:48;94738.97;;;38.93;26.90
1926;BME280;964;42.606;23.588;2023-07-24T01:19:20;94740.78;;;39.04;26.76
1926;BME280;964;42.606;23.588;2023-07-24T01:21:58;94739.28;;;38.58;27.19
1926;BME280;964;42.606;23.588;2023-07-24T01:24:33;94740.94;;;38.48;27.40
1926;BME280;964;42.606;23.588;2023-07-24T01:27:02;94734.75;;;39.32;26.48
1926;BME280;964;42.606;23.588;2023-07-24T01:29:29;94733.47;;;39.33;26.38
1926;BME280;964;42.606;23.588;2023-07-24T01:31:55;94730.34;;;39.23;26.38
1926;BME280;964;42.606;23.588;2023-07-24T01:34:22;94734.53;;;39.43;26.47
1926;BME280;964;42.606;23.588;2023-07-24T01:36:49;94740.47;;;39.20;26.55
1926;BME280;964;42.606;23.588;2023-07-24T01:39:18;94740.50;;;38.44;27.37
1926;BME280;964;42.606;23.588;2023-07-24T01:41:46;94755.03;;;38.50;27.72
1926;BME280;964;42.606;23.588;2023-07-24T01:44:15;94745.91;;;38.68;27.44
1926;BME280;964;42.606;23.588;2023-07-24T01:46:41;94741.75;;;38.61;27.66
1926;BME280;964;42.606;23.588;2023-07-24T01:49:08;94753.03;;;38.95;27.14
1926;BME280;964;42.606;23.588;2023-07-24T01:51:35;94731.84;;;38.98;27.09
1926;BME280;964;42.606;23.588;2023-07-24T01:54:01;94728.97;;;39.16;27.15
1926;BME280;964;42.606;23.588;2023-07-24T01:56:28;94733.16;;;39.36;26.92
1926;BME280;964;42.606;23.588;2023-07-24T01:58:54;94723.44;;;39.30;27.23
1926;BME280;964;42.606;23.588;2023-07-24T02:01:22;94728.31;;;39.10;27.11
1926;BME280;964;42.606;23.588;2023-07-24T02:03:49;94722.56;;;39.08;27.14
1926;BME280;964;42.606;23.588;2023-07-24T02:06:15;94727.63;;;38.91;27.67
1926;BME280;964;42.606;23.588;2023-07-24T02:08:42;94718.75;;;39.38;26.85
1926;BME280;964;42.606;23.588;2023-07-24T02:11:14;94724.91;;;39.57;26.89
1926;BME280;964;42.606;23.588;2023-07-24T02:13:40;94728.34;;;39.37;26.97
1926;BME280;964;42.606;23.588;2023-07-24T02:16:07;94737.09;;;39.54;26.87
1926;BME280;964;42.606;23.588;2023-07-24T02:18:35;94726.50;;;39.65;26.25
1926;BME280;964;42.606;23.588;2023-07-24T02:21:02;94728.66;;;39.73;26.17
1926;BME280;964;42.606;23.588;2023-07-24T02:23:28;94723.88;;;39.73;25.81
1926;BME280;964;42.606;23.588;2023-07-24T02:25:55;94725.56;;;39.63;25.90
1926;BME280;964;42.606;23.588;2023-07-24T02:28:21;94730.59;;;39.51;25.84
1926;BME280;964;42.606;23.588;2023-07-24T02:30:48;94734.09;;;39.26;26.53
1926;BME280;964;42.606;23.588;2023-07-24T02:33:16;94724.94;;;39.44;26.29
1926;BME280;964;42.606;23.588;2023-07-24T02:35:44;94721.09;;;39.47;26.10
1926;BME280;964;42.606;23.588;2023-07-24T02:38:11;94723.00;;;39.52;26.35
1926;BME280;964;42.606;23.588;2023-07-24T02:40:40;94722.16;;;39.44;26.07
1926;BME280;964;42.606;23.588;2023-07-24T02:43:07;94722.16;;;39.44;25.84
1926;BME280;964;42.606;23.588;2023-07-24T02:45:34;94722.34;;;39.46;26.03
1926;BME280;964;42.606;23.588;2023-07-24T02:48:00;94733.19;;;38.91;26.66
1926;BME280;964;42.606;23.588;2023-07-24T02:50:28;94738.13;;;38.16;27.33
1926;BME280;964;42.606;23.588;2023-07-24T02:52:56;94740.06;;;38.40;26.87
1926;BME280;964;42.606;23.588;2023-07-24T02:55:22;94717.91;;;39.30;25.69
1926;BME280;964;42.606;23.588;2023-07-24T02:57:49;94722.97;;;38.86;26.11
1926;BME280;964;42.606;23.588;2023-07-24T03:00:16;94715.13;;;39.16;26.24
1926;BME280;964;42.606;23.588;2023-07-24T03:02:43;94719.22;;;38.52;27.11
1926;BME280;964;42.606;23.588;2023-07-24T03:05:09;94729.63;;;38.78;26.74
1926;BME280;964;42.606;23.588;2023-07-24T03:07:36;94732.34;;;38.83;26.59
1926;BME280;964;42.606;23.588;2023-07-24T03:10:05;94733.31;;;38.99;26.45
1926;BME280;964;42.606;23.588;2023-07-24T03:12:33;94735.34;;;38.98;26.42
1926;BME280;964;42.606;23.588;2023-07-24T03:14:59;94726.19;;;39.16;26.07
1926;BME280;964;42.606;23.588;2023-07-24T03:17:26;94726.59;;;38.94;26.59
1926;BME280;964;42.606;23.588;2023-07-24T03:19:53;94721.16;;;38.57;27.08
1926;BME280;964;42.606;23.588;2023-07-24T03:22:20;94723.63;;;38.10;27.29
1926;BME280;964;42.606;23.588;2023-07-24T03:24:47;94715.91;;;38.21;27.72
1926;BME280;964;42.606;23.588;2023-07-24T03:27:15;94718.50;;;38.33;27.52
1926;BME280;964;42.606;23.588;2023-07-24T03:29:41;94718.88;;;38.23;27.35
1926;BME280;964;42.606;23.588;2023-07-24T03:32:08;94718.53;;;37.95;27.69
1926;BME280;964;42.606;23.588;2023-07-24T03:34:34;94720.53;;;38.32;27.41
1926;BME280;964;42.606;23.588;2023-07-24T03:37:01;94726.81;;;38.33;27.20
1926;BME280;964;42.606;23.588;2023-07-24T03:39:27;94731.94;;;38.60;26.82
1926;BME280;964;42.606;23.588;2023-07-24T03:41:54;94727.63;;;38.27;26.95
1926;BME280;964;42.606;23.588;2023-07-24T03:44:22;94746.34;;;38.21;27.38
1926;BME280;964;42.606;23.588;2023-07-24T03:46:49;94731.03;;;39.29;26.06
1926;BME280;964;42.606;23.588;2023-07-24T03:49:15;94732.78;;;39.13;26.20
1926;BME280;964;42.606;23.588;2023-07-24T03:51:42;94741.69;;;38.80;26.82
1926;BME280;964;42.606;23.588;2023-07-24T03:54:08;94732.59;;;39.51;26.11
1926;BME280;964;42.606;23.588;2023-07-24T03:56:35;94734.50;;;39.69;26.26
1926;BME280;964;42.606;23.588;2023-07-24T03:59:02;94725.56;;;39.76;26.31
1926;BME280;964;42.606;23.588;2023-07-24T04:01:30;94722.34;;;39.85;25.83
1926;BME280;964;42.606;23.588;2023-07-24T04:03:56;94719.28;;;40.09;25.42
1926;BME280;964;42.606;23.588;2023-07-24T04:06:23;94730.69;;;39.85;26.13
1926;BME280;964;42.606;23.588;2023-07-24T04:08:49;94719.91;;;40.29;25.90
1926;BME280;964;42.606;23.588;2023-07-24T04:11:16;94723.50;;;40.37;25.69
1926;BME280;964;42.606;23.588;2023-07-24T04:13:43;94726.25;;;40.03;25.73
1926;BME280;964;42.606;23.588;2023-07-24T04:16:09;94723.28;;;40.35;25.43
1926;BME280;964;42.606;23.588;2023-07-24T04:18:37;94723.22;;;40.89;25.60
1926;BME280;964;42.606;23.588;2023-07-24T04:21:04;94721.63;;;40.73;25.27
1926;BME280;964;42.606;23.588;2023-07-24T04:23:30;94731.31;;;41.00;25.74
1926;BME280;964;42.606;23.588;2023-07-24T04:25:57;94724.78;;;40.77;25.14
1926;BME280;964;42.606;23.588;2023-07-24T04:28:23;94723.44;;;40.91;25.08
1926;BME280;964;42.606;23.588;2023-07-24T04:30:50;94737.00;;;40.20;25.95
1926;BME280;964;42.606;23.588;2023-07-24T04:33:17;94730.47;;;40.92;25.21
1926;BME280;964;42.606;23.588;2023-07-24T04:35:47;94723.59;;;40.65;25.74
1926;BME280;964;42.606;23.588;2023-07-24T04:38:14;94733.44;;;40.32;26.06
1926;BME280;964;42.606;23.588;2023-07-24T04:40:43;94727.91;;;40.94;25.10
1926;BME280;964;42.606;23.588;2023-07-24T04:43:10;94732.72;;;40.94;25.82
1926;BME280;964;42.606;23.588;2023-07-24T04:45:36;94732.81;;;40.60;25.39
1926;BME280;964;42.606;23.588;2023-07-24T04:48:04;94725.47;;;41.40;25.51
1926;BME280;964;42.606;23.588;2023-07-24T04:50:30;94730.22;;;41.60;24.89
1926;BME280;964;42.606;23.588;2023-07-24T04:52:59;94740.88;;;40.37;26.18
1926;BME280;964;42.606;23.588;2023-07-24T04:55:26;94744.38;;;40.92;24.98
1926;BME280;964;42.606;23.588;2023-07-24T04:57:52;94742.91;;;41.40;25.29
1926;BME280;964;42.606;23.588;2023-07-24T05:00:19;94750.78;;;41.00;25.97
1926;BME280;964;42.606;23.588;2023-07-24T05:02:45;94739.38;;;41.40;24.68
1926;BME280;964;42.606;23.588;2023-07-24T05:05:12;94746.06;;;40.95;25.75
1926;BME280;964;42.606;23.588;2023-07-24T05:07:38;94747.94;;;40.38;26.04
1926;BME280;964;42.606;23.588;2023-07-24T05:10:07;94735.16;;;41.46;25.30
1926;BME280;964;42.606;23.588;2023-07-24T05:12:34;94751.13;;;41.46;24.74
1926;BME280;964;42.606;23.588;2023-07-24T05:15:00;94754.19;;;40.52;26.34
1926;BME280;964;42.606;23.588;2023-07-24T05:17:27;94750.09;;;41.64;25.13
1926;BME280;964;42.606;23.588;2023-07-24T05:19:54;94740.22;;;41.55;25.44
1926;BME280;964;42.606;23.588;2023-07-24T05:22:20;94744.78;;;40.96;25.69
1926;BME280;964;42.606;23.588;2023-07-24T05:24:47;94732.41;;;41.54;24.69
1926;BME280;964;42.606;23.588;2023-07-24T05:27:15;94729.53;;;41.67;25.33
1926;BME280;964;42.606;23.588;2023-07-24T05:29:42;94730.81;;;41.38;25.75
1926;BME280;964;42.606;23.588;2023-07-24T05:32:08;94741.59;;;40.51;26.37
1926;BME280;964;42.606;23.588;2023-07-24T05:34:35;94736.84;;;41.49;25.29
1926;BME280;964;42.606;23.588;2023-07-24T05:37:02;94737.84;;;41.95;25.25
1926;BME280;964;42.606;23.588;2023-07-24T05:39:29;94734.16;;;42.00;25.16
1926;BME280;964;42.606;23.588;2023-07-24T05:41:56;94746.88;;;42.32;24.88
1926;BME280;964;42.606;23.588;2023-07-24T05:44:24;94743.78;;;42.58;24.56
1926;BME280;964;42.606;23.588;2023-07-24T05:46:50;94745.88;;;42.88;24.56
1926;BME280;964;42.606;23.588;2023-07-24T05:49:17;94736.75;;;42.87;24.25
1926;BME280;964;42.606;23.588;2023-07-24T05:51:43;94724.28;;;43.19;23.56
1926;BME280;964;42.606;23.588;2023-07-24T05:54:10;94728.94;;;43.16;24.04
1926;BME280;964;42.606;23.588;2023-07-24T05:56:37;94731.50;;;43.37;23.57
1926;BME280;964;42.606;23.588;2023-07-24T05:59:03;94722.00;;;43.55;23.43
1926;BME280;964;42.606;23.588;2023-07-24T06:01:31;94723.53;;;43.41;23.54
1926;BME280;964;42.606;23.588;2023-07-24T06:03:58;94709.28;;;43.69;23.24
1926;BME280;964;42.606;23.588;2023-07-24T06:06:24;94706.78;;;43.96;23.19
1926;BME280;964;42.606;23.588;2023-07-24T06:09:09;94697.13;;;43.97;23.00
1926;BME280;964;42.606;23.588;2023-07-24T06:11:36;94692.97;;;44.38;22.24
1926;BME280;964;42.606;23.588;2023-07-24T06:14:14;94688.06;;;44.46;22.80
1926;BME280;964;42.606;23.588;2023-07-24T06:16:56;94688.66;;;44.45;22.41
1926;BME280;964;42.606;23.588;2023-07-24T06:19:23;94687.41;;;44.87;22.56
1926;BME280;964;42.606;23.588;2023-07-24T06:21:49;94692.44;;;44.64;22.14
1926;BME280;964;42.606;23.588;2023-07-24T06:24:16;94687.53;;;44.72;22.89
1926;BME280;964;42.606;23.588;2023-07-24T06:26:44;94689.91;;;44.51;22.11
1926;BME280;964;42.606;23.588;2023-07-24T06:29:11;94677.56;;;45.04;21.73
1926;BME280;964;42.606;23.588;2023-07-24T06:31:37;94681.84;;;45.05;21.98
1926;BME280;964;42.606;23.588;2023-07-24T06:34:06;94677.03;;;45.74;21.70
1926;BME280;964;42.606;23.588;2023-07-24T06:36:32;94675.50;;;45.46;21.67
1926;BME280;964;42.606;23.588;2023-07-24T06:38:59;94679.88;;;46.01;21.39
1926;BME280;964;42.606;23.588;2023-07-24T06:41:26;94668.88;;;45.86;21.34
1926;BME280;964;42.606;23.588;2023-07-24T06:43:52;94682.94;;;45.09;21.58
1926;BME280;964;42.606;23.588;2023-07-24T06:46:19;94673.59;;;46.10;21.14
1926;BME280;964;42.606;23.588;2023-07-24T06:48:45;94686.19;;;45.74;21.11
1926;BME280;964;42.606;23.588;2023-07-24T06:51:13;94681.56;;;45.52;21.48
1926;BME280;964;42.606;23.588;2023-07-24T06:53:40;94672.00;;;46.43;20.33
1926;BME280;964;42.606;23.588;2023-07-24T06:56:07;94675.03;;;46.55;20.33
1926;BME280;964;42.606;23.588;2023-07-24T06:58:33;94681.53;;;45.69;21.64
1926;BME280;964;42.606;23.588;2023-07-24T07:01:00;94673.00;;;46.38;21.27
1926;BME280;964;42.606;23.588;2023-07-24T07:03:26;94674.81;;;47.54;20.06
1926;BME280;964;42.606;23.588;2023-07-24T07:05:58;94675.09;;;47.20;19.47
1926;BME280;964;42.606;23.588;2023-07-24T07:08:26;94674.03;;;47.44;20.02
1926;BME280;964;42.606;23.588;2023-07-24T07:10:55;94669.47;;;47.78;19.78
1926;BME280;964;42.606;23.588;2023-07-24T07:13:21;94677.53;;;46.97;20.22
1926;BME280;964;42.606;23.588;2023-07-24T07:15:48;94677.34;;;47.60;19.13
1926;BME280;964;42.606;23.588;2023-07-24T07:18:15;94672.16;;;47.95;18.92
1926;BME280;964;42.606;23.588;2023-07-24T07:20:45;94664.31;;;48.43;18.66
1926;BME280;964;42.606;23.588;2023-07-24T07:23:11;94674.19;;;47.85;18.80
1926;BME280;964;42.606;23.588;2023-07-24T07:25:39;94673.03;;;47.49;20.16
1926;BME280;964;42.606;23.588;2023-07-24T07:28:06;94669.91;;;48.03;19.71
1926;BME280;964;42.606;23.588;2023-07-24T07:30:32;94664.81;;;48.71;19.05
1926;BME280;964;42.606;23.588;2023-07-24T07:32:59;94676.84;;;48.11;19.77
1926;BME280;964;42.606;23.588;2023-07-24T07:35:26;94664.44;;;48.86;18.84
1926;BME280;964;42.606;23.588;2023-07-24T07:37:52;94667.09;;;49.15;18.79
1926;BME280;964;42.606;23.588;2023-07-24T07:40:19;94660.19;;;49.06;19.05
1926;BME280;964;42.606;23.588;2023-07-24T07:42:47;94657.56;;;49.20;18.75
1926;BME280;964;42.606;23.588;2023-07-24T07:45:14;94657.38;;;49.27;18.78
1926;BME280;964;42.606;23.588;2023-07-24T07:47:40;94662.69;;;48.81;19.12
1926;BME280;964;42.606;23.588;2023-07-24T07:50:07;94661.09;;;48.78;18.77
1926;BME280;964;42.606;23.588;2023-07-24T07:52:34;94666.25;;;49.33;18.55
1926;BME280;964;42.606;23.588;2023-07-24T07:55:01;94663.06;;;49.93;18.35
1926;BME280;964;42.606;23.588;2023-07-24T07:57:28;94656.16;;;49.73;18.21
1926;BME280;964;42.606;23.588;2023-07-24T07:59:56;94664.75;;;49.32;18.31
1926;BME280;964;42.606;23.588;2023-07-24T08:02:22;94665.06;;;49.36;18.41
1926;BME280;964;42.606;23.588;2023-07-24T08:04:49;94664.88;;;50.21;17.67
1926;BME280;964;42.606;23.588;2023-07-24T08:07:16;94670.38;;;49.53;18.68
1926;BME280;964;42.606;23.588;2023-07-24T08:09:42;94666.31;;;49.78;18.20
1926;BME280;964;42.606;23.588;2023-07-24T08:12:09;94666.47;;;49.80;18.21
1926;BME280;964;42.606;23.588;2023-07-24T08:14:36;94664.13;;;50.09;17.92
1926;BME280;964;42.606;23.588;2023-07-24T08:17:04;94658.31;;;50.75;17.69
1926;BME280;964;42.606;23.588;2023-07-24T08:19:31;94661.00;;;50.84;17.34
1926;BME280;964;42.606;23.588;2023-07-24T08:21:57;94659.75;;;49.64;18.29
1926;BME280;964;42.606;23.588;2023-07-24T08:35:37;94631.09;;;51.90;16.99
1926;BME280;964;42.606;23.588;2023-07-24T08:38:04;94624.41;;;52.22;16.64
1926;BME280;964;42.606;23.588;2023-07-24T08:40:31;94629.25;;;51.94;16.70
1926;BME280;964;42.606;23.588;2023-07-24T08:42:57;94619.34;;;52.07;16.25
1926;BME280;964;42.606;23.588;2023-07-24T08:45:25;94628.72;;;51.98;16.30
1926;BME280;964;42.606;23.588;2023-07-24T08:47:52;94631.94;;;51.30;16.96
1926;BME280;964;42.606;23.588;2023-07-24T08:50:20;94625.66;;;52.19;16.59
1926;BME280;964;42.606;23.588;2023-07-24T08:52:48;94625.44;;;52.15;16.50
1926;BME280;964;42.606;23.588;2023-07-24T08:55:15;94626.03;;;51.38;16.55
1926;BME280;964;42.606;23.588;2023-07-24T08:57:41;94621.13;;;51.38;16.30
1926;BME280;964;42.606;23.588;2023-07-24T09:00:08;94620.63;;;50.59;16.34
1926;BME280;964;42.606;23.588;2023-07-24T09:02:35;94627.34;;;50.30;16.76
1926;BME280;964;42.606;23.588;2023-07-24T09:05:02;94623.41;;;51.54;15.30
1926;BME280;964;42.606;23.588;2023-07-24T09:07:30;94615.94;;;51.97;15.36
1926;BME280;964;42.606;23.588;2023-07-24T09:09:58;94607.06;;;52.42;14.57
1926;BME280;964;42.606;23.588;2023-07-24T09:12:25;94601.63;;;53.43;14.48
1926;BME280;964;42.606;23.588;2023-07-24T09:15:00;94611.38;;;53.11;14.67
1926;BME280;964;42.606;23.588;2023-07-24T09:17:28;94601.34;;;53.23;13.69
1926;BME280;964;42.606;23.588;2023-07-24T09:19:56;94591.50;;;53.83;13.39
1926;BME280;964;42.606;23.588;2023-07-24T09:22:23;94588.31;;;53.61;13.19
1926;BME280;964;42.606;23.588;2023-07-24T09:24:53;94590.03;;;53.66;12.74
1926;BME280;964;42.606;23.588;2023-07-24T09:27:25;94594.91;;;53.07;13.49
1926;BME280;964;42.606;23.588;2023-07-24T09:29:52;94587.63;;;53.18;13.53
1926;BME280;964;42.606;23.588;2023-07-24T09:32:20;94590.84;;;53.40;14.36
1926;BME280;964;42.606;23.588;2023-07-24T09:34:47;94585.81;;;53.24;14.25
1926;BME280;964;42.606;23.588;2023-07-24T09:37:23;94582.56;;;53.30;14.46
1926;BME280;964;42.606;23.588;2023-07-24T09:39:50;94580.28;;;54.48;14.20
1926;BME280;964;42.606;23.588;2023-07-24T09:42:17;94583.19;;;53.28;13.53
1926;BME280;964;42.606;23.588;2023-07-24T09:44:44;94572.69;;;54.05;13.58
1926;BME280;964;42.606;23.588;2023-07-24T09:47:11;94573.13;;;53.84;14.01
1926;BME280;964;42.606;23.588;2023-07-24T09:49:38;94574.69;;;53.28;14.39
1926;BME280;964;42.606;23.588;2023-07-24T09:52:09;94564.44;;;53.96;14.43
1926;BME280;964;42.606;23.588;2023-07-24T09:54:42;94560.94;;;54.60;14.51
1926;BME280;964;42.606;23.588;2023-07-24T09:57:13;94556.72;;;53.67;14.18
1926;BME280;964;42.606;23.588;2023-07-24T09:59:40;94550.31;;;53.82;13.88
1926;BME280;964;42.606;23.588;2023-07-24T10:02:11;94540.34;;;53.65;13.65
1926;BME280;964;42.606;23.588;2023-07-24T10:04:40;94537.59;;;52.95;14.16
1926;BME280;964;42.606;23.588;2023-07-24T10:07:06;94544.56;;;52.51;14.32
1926;BME280;964;42.606;23.588;2023-07-24T10:09:33;94542.47;;;53.96;13.65
1926;BME280;964;42.606;23.588;2023-07-24T10:12:00;94536.66;;;53.63;13.96
1926;BME280;964;42.606;23.588;2023-07-24T10:14:28;94524.16;;;53.09;13.73
1926;BME280;964;42.606;23.588;2023-07-24T10:16:56;94534.25;;;53.12;14.00
1926;BME280;964;42.606;23.588;2023-07-24T10:19:24;94527.59;;;52.65;14.56
1926;BME280;964;42.606;23.588;2023-07-24T10:22:01;94532.63;;;52.53;14.81
1926;BME280;964;42.606;23.588;2023-07-24T10:24:29;94527.00;;;53.39;14.68
1926;BME280;964;42.606;23.588;2023-07-24T10:26:56;94528.41;;;53.24;13.94
1926;BME280;964;42.606;23.588;2023-07-24T10:29:23;94526.09;;;53.20;13.84
1926;BME280;964;42.606;23.588;2023-07-24T10:31:53;94528.56;;;53.12;14.06
1926;BME280;964;42.606;23.588;2023-07-24T10:34:20;94525.22;;;53.02;14.18
1926;BME280;964;42.606;23.588;2023-07-24T10:36:48;94521.44;;;54.17;13.85
1926;BME280;964;42.606;23.588;2023-07-24T10:39:16;94516.53;;;53.27;14.34
1926;BME280;964;42.606;23.588;2023-07-24T10:41:44;94510.75;;;53.55;13.95
1926;BME280;964;42.606;23.588;2023-07-24T10:44:11;94506.59;;;54.18;13.42
1926;BME280;964;42.606;23.588;2023-07-24T10:46:39;94508.00;;;53.41;13.99
1926;BME280;964;42.606;23.588;2023-07-24T10:49:06;94500.94;;;53.13;14.63
1926;BME280;964;42.606;23.588;2023-07-24T10:51:33;94516.88;;;52.77;13.92
1926;BME280;964;42.606;23.588;2023-07-24T10:54:04;94506.03;;;52.87;14.58
1926;BME280;964;42.606;23.588;2023-07-24T10:56:31;94507.44;;;53.74;13.79
1926;BME280;964;42.606;23.588;2023-07-24T10:59:02;94507.09;;;54.62;13.53
1926;BME280;964;42.606;23.588;2023-07-24T11:01:30;94501.97;;;53.64;13.98
1926;BME280;964;42.606;23.588;2023-07-24T11:03:58;94498.31;;;54.56;13.14
1926;BME280;964;42.606;23.588;2023-07-24T11:06:24;94502.69;;;53.33;14.09
1926;BME280;964;42.606;23.588;2023-07-24T11:08:52;94494.72;;;53.01;13.92
1926;BME280;964;42.606;23.588;2023-07-24T11:11:20;94500.16;;;53.55;13.67
1926;BME280;964;42.606;23.588;2023-07-24T11:13:46;94486.94;;;54.56;13.80
1926;BME280;964;42.606;23.588;2023-07-24T11:16:13;94476.34;;;54.41;13.31
1926;BME280;964;42.606;23.588;2023-07-24T11:18:46;94472.19;;;54.59;13.59
1926;BME280;964;42.606;23.588;2023-07-24T11:21:13;94473.88;;;54.82;13.77
1926;BME280;964;42.606;23.588;2023-07-24T11:23:45;94473.56;;;55.45;13.26
1926;BME280;964;42.606;23.588;2023-07-24T11:26:12;94475.06;;;55.65;13.50
1926;BME280;964;42.606;23.588;2023-07-24T11:28:40;94473.25;;;55.37;13.14
1926;BME280;964;42.606;23.588;2023-07-24T11:31:06;94454.84;;;56.14;12.87
1926;BME280;964;42.606;23.588;2023-07-24T11:33:34;94449.91;;;55.58;12.82
1926;BME280;964;42.606;23.588;2023-07-24T11:36:01;94450.88;;;56.04;12.67
1926;BME280;964;42.606;23.588;2023-07-24T11:38:28;94444.63;;;56.47;12.26
1926;BME280;964;42.606;23.588;2023-07-24T11:40:55;94435.28;;;56.25;12.93
1926;BME280;964;42.606;23.588;2023-07-24T11:43:23;94433.69;;;56.20;12.42
1926;BME280;964;42.606;23.588;2023-07-24T11:45:52;94422.03;;;56.96;13.12
1926;BME280;964;42.606;23.588;2023-07-24T11:48:20;94432.19;;;56.58;12.89
1926;BME280;964;42.606;23.588;2023-07-24T11:50:47;94406.69;;;57.29;12.96
1926;BME280;964;42.606;23.588;2023-07-24T11:53:22;94414.50;;;56.42;12.63
1926;BME280;964;42.606;23.588;2023-07-24T11:55:49;94413.19;;;56.86;12.38
1926;BME280;964;42.606;23.588;2023-07-24T11:58:17;94412.09;;;56.97;12.56
1926;BME280;964;42.606;23.588;2023-07-24T12:00:45;94422.59;;;56.28;13.27
1926;BME280;964;42.606;23.588;2023-07-24T12:03:13;94409.00;;;56.46;12.90
1926;BME280;964;42.606;23.588;2023-07-24T12:05:40;94405.66;;;57.19;12.63
1926;BME280;964;42.606;23.588;2023-07-24T12:08:07;94407.97;;;56.59;13.37
1926;BME280;964;42.606;23.588;2023-07-24T12:10:36;94423.31;;;56.08;13.39
1926;BME280;964;42.606;23.588;2023-07-24T12:13:03;94425.06;;;54.88;13.90
1926;BME280;964;42.606;23.588;2023-07-24T12:15:30;94426.56;;;54.22;13.96
1926;BME280;964;42.606;23.588;2023-07-24T12:17:56;94418.34;;;54.79;14.01
1926;BME280;964;42.606;23.588;2023-07-24T12:20:25;94421.63;;;54.22;14.15
1926;BME280;964;42.606;23.588;2023-07-24T12:22:51;94417.69;;;54.98;13.32
1926;BME280;964;42.606;23.588;2023-07-24T12:25:19;94411.63;;;53.88;14.21
1926;BME280;964;42.606;23.588;2023-07-24T12:27:46;94419.78;;;54.80;13.78
1926;BME280;964;42.606;23.588;2023-07-24T12:30:13;94408.91;;;56.44;12.74
1926;BME280;964;42.606;23.588;2023-07-24T12:32:39;94408.38;;;55.51;13.56
1926;BME280;964;42.606;23.588;2023-07-24T12:35:09;94408.59;;;56.77;13.04
1926;BME280;964;42.606;23.588;2023-07-24T12:37:37;94400.16;;;57.03;12.95
1926;BME280;964;42.606;23.588;2023-07-24T12:40:06;94403.22;;;56.44;12.93
1926;BME280;964;42.606;23.588;2023-07-24T12:42:33;94407.41;;;56.21;12.86
1926;BME280;964;42.606;23.588;2023-07-24T12:45:00;94395.66;;;56.52;13.00
1926;BME280;964;42.606;23.588;2023-07-24T12:47:28;94381.81;;;56.65;12.75
1926;BME280;964;42.606;23.588;2023-07-24T12:49:54;94386.47;;;56.54;13.34
1926;BME280;964;42.606;23.588;2023-07-24T12:52:23;94390.38;;;56.65;13.35
1926;BME280;964;42.606;23.588;2023-07-24T12:54:51;94388.66;;;55.55;14.19
1926;BME280;964;42.606;23.588;2023-07-24T12:57:17;94394.41;;;55.57;13.83
1926;BME280;964;42.606;23.588;2023-07-24T12:59:44;94389.09;;;56.06;13.32
1926;BME280;964;42.606;23.588;2023-07-24T13:02:10;94384.78;;;55.86;13.82
1926;BME280;964;42.606;23.588;2023-07-24T13:04:37;94379.97;;;55.90;13.65
1926;BME280;964;42.606;23.588;2023-07-24T13:07:04;94379.03;;;56.88;13.56
1926;BME280;964;42.606;23.588;2023-07-24T13:09:31;94368.63;;;56.97;13.93
1926;BME280;964;42.606;23.588;2023-07-24T13:11:59;94383.41;;;54.59;14.24
1926;BME280;964;42.606;23.588;2023-07-24T13:14:25;94378.03;;;55.38;13.69
1926;BME280;964;42.606;23.588;2023-07-24T13:16:52;94377.59;;;54.90;13.88
1926;BME280;964;42.606;23.588;2023-07-24T13:19:18;94375.25;;;55.40;13.55
1926;BME280;964;42.606;23.588;2023-07-24T13:21:45;94376.59;;;55.37;13.40
1926;BME280;964;42.606;23.588;2023-07-24T13:24:12;94368.75;;;55.55;13.67
1926;BME280;964;42.606;23.588;2023-07-24T13:26:39;94351.06;;;56.18;13.32
1926;BME280;964;42.606;23.588;2023-07-24T13:29:07;94349.63;;;56.60;12.54
1926;BME280;964;42.606;23.588;2023-07-24T13:31:33;94356.22;;;56.45;13.08
1926;BME280;964;42.606;23.588;2023-07-24T13:34:00;94360.06;;;54.78;13.48